createdAt,value
2019-04-11T00:02:02.540Z,3.46
2019-04-11T00:04:34.944Z,3.45
2019-04-11T00:07:07.864Z,3.45
2019-04-11T00:09:40.882Z,3.44
2019-04-11T00:12:13.120Z,3.44
2019-04-11T00:14:46.789Z,3.41
2019-04-11T00:17:19.600Z,3.39
2019-04-11T00:19:51.901Z,3.36
2019-04-11T00:22:24.332Z,3.34
2019-04-11T00:24:56.646Z,3.30
2019-04-11T00:27:28.950Z,3.30
2019-04-11T00:30:01.932Z,3.29
2019-04-11T00:32:34.300Z,3.25
2019-04-11T00:35:07.184Z,3.24
2019-04-11T00:37:39.472Z,3.24
2019-04-11T00:40:13.079Z,3.21
2019-04-11T00:42:47.540Z,3.21
2019-04-11T00:45:19.880Z,3.22
2019-04-11T00:47:53.181Z,3.18
2019-04-11T00:50:25.510Z,3.20
2019-04-11T00:52:58.033Z,3.19
2019-04-11T00:55:31.354Z,3.18
2019-04-11T00:58:03.726Z,3.17
2019-04-11T01:00:37.100Z,3.16
2019-04-11T01:03:10.036Z,3.13
2019-04-11T01:05:42.615Z,3.09
2019-04-11T01:08:15.698Z,3.08
2019-04-11T01:10:48.032Z,3.10
2019-04-11T01:13:20.956Z,3.08
2019-04-11T01:15:54.435Z,3.06
2019-04-11T01:18:27.708Z,3.06
2019-04-11T01:20:59.989Z,3.02
2019-04-11T01:23:33.233Z,2.97
2019-04-11T01:26:05.851Z,2.97
2019-04-11T01:28:38.591Z,2.98
2019-04-11T01:31:11.594Z,2.97
2019-04-11T01:33:44.297Z,2.98
2019-04-11T01:36:16.647Z,2.96
2019-04-11T01:38:52.628Z,2.91
2019-04-11T01:41:24.876Z,2.90
2019-04-11T01:44:03.330Z,2.87
2019-04-11T01:46:31.961Z,2.87
2019-04-11T01:49:06.175Z,2.83
2019-04-11T01:51:38.454Z,2.79
2019-04-11T01:54:11.209Z,2.81
2019-04-11T01:56:43.922Z,2.78
2019-04-11T01:59:17.355Z,2.74
2019-04-11T02:01:49.986Z,2.71
2019-04-11T02:04:23.679Z,2.67
2019-04-11T02:06:56.283Z,2.66
2019-04-11T02:09:28.631Z,2.61
2019-04-11T02:12:01.667Z,2.62
2019-04-11T02:14:35.749Z,2.60
2019-04-11T02:17:08.540Z,2.56
2019-04-11T02:19:41.259Z,2.53
2019-04-11T02:22:13.850Z,2.51
2019-04-11T02:24:46.292Z,2.50
2019-04-11T02:27:19.060Z,2.48
2019-04-11T02:29:51.391Z,2.47
2019-04-11T02:32:25.415Z,2.48
2019-04-11T02:34:59.368Z,2.46
2019-04-11T02:37:33.717Z,2.41
2019-04-11T02:40:07.541Z,2.39
2019-04-11T02:42:41.052Z,2.36
2019-04-11T02:45:24.990Z,2.31
2019-04-11T02:47:48.729Z,2.26
2019-04-11T02:50:23.835Z,2.25
2019-04-11T02:52:56.643Z,2.26
2019-04-11T02:55:29.511Z,2.26
2019-04-11T02:58:04.013Z,2.22
2019-04-11T03:00:37.643Z,2.25
2019-04-11T03:03:13.034Z,2.19
2019-04-11T03:05:46.777Z,2.18
2019-04-11T03:08:21.745Z,2.18
2019-04-11T03:10:53.757Z,2.14
2019-04-11T03:13:27.351Z,2.10
2019-04-11T03:16:19.251Z,2.09
2019-04-11T03:18:53.063Z,2.07
2019-04-11T03:21:13.684Z,2.07
2019-04-11T03:23:43.404Z,2.06
2019-04-11T03:26:16.854Z,2.01
2019-04-11T03:28:52.183Z,1.97
2019-04-11T03:35:03.139Z,1.93
2019-04-11T03:39:29.205Z,1.94
2019-04-11T03:41:54.792Z,1.93
2019-04-11T03:44:21.288Z,1.92
2019-04-11T03:47:01.354Z,1.89
2019-04-11T03:49:31.651Z,1.84
2019-04-11T03:51:55.637Z,1.83
2019-04-11T03:54:29.481Z,1.83
2019-04-11T03:57:03.570Z,1.83
2019-04-11T03:59:38.443Z,1.82
2019-04-11T04:02:12.356Z,1.80
2019-04-11T04:04:45.579Z,1.79
2019-04-11T04:07:19.173Z,1.77
2019-04-11T04:09:53.643Z,1.77
2019-04-11T04:12:27.175Z,1.77
2019-04-11T04:15:01.416Z,1.79
2019-04-11T04:17:35.272Z,1.77
2019-04-11T04:20:08.833Z,1.76
2019-04-11T04:22:42.077Z,1.75
2019-04-11T04:25:16.658Z,1.73
2019-04-11T04:27:49.309Z,1.71
2019-04-11T04:30:24.779Z,1.72
2019-04-11T04:32:58.423Z,1.71
2019-04-11T04:35:31.707Z,1.69
2019-04-11T04:38:05.177Z,1.69
2019-04-11T04:40:50.988Z,1.68
2019-04-11T04:43:14.463Z,1.68
2019-04-11T04:46:05.115Z,1.66
2019-04-11T04:48:24.275Z,1.68
2019-04-11T04:50:57.248Z,1.68
2019-04-11T04:53:30.786Z,1.68
2019-04-11T04:56:03.265Z,1.68
2019-04-11T04:58:35.546Z,1.71
2019-04-11T05:01:07.962Z,1.73
2019-04-11T05:03:42.389Z,1.74
2019-04-11T05:06:16.346Z,1.73
2019-04-11T05:08:49.314Z,1.74
2019-04-11T05:11:23.154Z,1.76
2019-04-11T05:13:58.702Z,1.76
2019-04-11T05:16:31.063Z,1.76
2019-04-11T05:19:04.485Z,1.79
2019-04-11T05:21:37.246Z,1.81
2019-04-11T05:24:10.340Z,1.88
2019-04-11T05:26:43.895Z,1.91
2019-04-11T05:29:17.365Z,1.96
2019-04-11T05:31:51.129Z,2.01
2019-04-11T05:34:23.797Z,2.06
2019-04-11T05:36:57.519Z,2.12
2019-04-11T05:39:30.323Z,2.17
2019-04-11T05:42:03.165Z,2.21
2019-04-11T05:44:38.196Z,2.29
2019-04-11T05:47:09.409Z,2.40
2019-04-11T05:49:43.298Z,2.53
2019-04-11T05:52:16.150Z,2.63
2019-04-11T05:54:49.741Z,2.72
2019-04-11T05:57:26.854Z,2.78
2019-04-11T05:59:57.796Z,2.94
2019-04-11T06:02:30.145Z,2.96
2019-04-11T06:05:02.848Z,3.00
2019-04-11T06:07:40.032Z,3.14
2019-04-11T06:10:11.213Z,3.36
2019-04-11T06:12:43.533Z,3.67
2019-04-11T06:15:15.908Z,3.90
2019-04-11T06:17:48.264Z,3.96
2019-04-11T06:20:20.485Z,3.93
2019-04-11T06:22:52.744Z,3.85
2019-04-11T06:25:25.782Z,3.80
2019-04-11T06:27:59.932Z,3.79
2019-04-11T06:30:32.587Z,3.77
2019-04-11T06:33:08.032Z,3.75
2019-04-11T06:35:40.333Z,3.78
2019-04-11T06:38:12.633Z,3.78
2019-04-11T06:40:45.997Z,3.84
2019-04-11T06:43:18.415Z,3.87
2019-04-11T06:45:50.755Z,3.92
2019-04-11T06:48:24.570Z,3.97
2019-04-11T06:50:57.664Z,4.03
2019-04-11T06:53:30.179Z,4.13
2019-04-11T06:56:03.506Z,4.20
2019-04-11T06:58:35.880Z,4.29
2019-04-11T07:01:08.156Z,4.37
2019-04-11T07:03:40.639Z,4.43
2019-04-11T07:06:13.361Z,4.50
2019-04-11T07:08:46.925Z,4.52
2019-04-11T07:11:19.919Z,4.60
2019-04-11T07:13:53.292Z,4.66
2019-04-11T07:16:27.819Z,4.75
2019-04-11T07:19:00.631Z,4.87
2019-04-11T07:21:35.445Z,4.98
2019-04-11T07:24:07.903Z,5.09
2019-04-11T07:26:40.115Z,5.20
2019-04-11T07:29:13.063Z,5.32
2019-04-11T07:31:46.305Z,5.40
2019-04-11T07:34:19.470Z,5.46
2019-04-11T07:36:51.886Z,5.58
2019-04-11T07:39:25.640Z,5.63
2019-04-11T07:41:58.506Z,5.65
2019-04-11T07:44:32.232Z,5.75
2019-04-11T07:47:14.541Z,5.86
2019-04-11T07:49:41.035Z,5.93
2019-04-11T07:52:13.559Z,6.09
2019-04-11T07:54:45.775Z,6.18
2019-04-11T07:57:19.706Z,6.24
2019-04-11T07:59:52.004Z,6.35
2019-04-11T08:02:24.748Z,6.45
2019-04-11T08:04:57.657Z,6.50
2019-04-11T08:07:30.496Z,6.60
2019-04-11T08:10:03.117Z,6.64
2019-04-11T08:12:35.490Z,6.70
2019-04-11T08:15:08.962Z,6.78
2019-04-11T08:17:42.965Z,6.86
2019-04-11T08:20:15.756Z,6.99
2019-04-11T08:22:48.051Z,7.14
2019-04-11T08:25:20.909Z,7.26
2019-04-11T08:28:00.030Z,7.35
2019-04-11T08:30:27.608Z,7.36
2019-04-11T08:33:00.343Z,7.41
2019-04-11T08:35:33.648Z,7.46
2019-04-11T08:38:07.908Z,7.56
2019-04-11T08:40:40.254Z,7.70
2019-04-11T08:43:12.962Z,7.80
2019-04-11T08:45:46.471Z,7.83
2019-04-11T08:48:21.142Z,7.89
2019-04-11T08:50:54.647Z,7.96
2019-04-11T08:53:26.916Z,8.02
2019-04-11T08:56:01.054Z,8.08
2019-04-11T08:58:33.170Z,8.11
2019-04-11T09:01:05.851Z,8.13
2019-04-11T09:03:39.952Z,8.11
2019-04-11T09:06:12.575Z,8.21
2019-04-11T09:08:45.187Z,8.53
2019-04-11T09:11:20.405Z,8.83
2019-04-11T09:13:52.787Z,8.90
2019-04-11T09:16:25.776Z,8.86
2019-04-11T09:18:59.615Z,8.77
2019-04-11T09:21:32.327Z,8.79
2019-04-11T09:24:04.661Z,8.86
2019-04-11T09:26:38.067Z,8.81
2019-04-11T09:29:10.364Z,8.75
2019-04-11T09:31:43.879Z,8.86
2019-04-11T09:34:17.524Z,8.86
2019-04-11T09:36:49.902Z,8.85
2019-04-11T09:39:23.406Z,8.89
2019-04-11T09:41:56.618Z,9.02
2019-04-11T09:44:30.912Z,9.11
2019-04-11T09:47:03.648Z,9.17
2019-04-11T09:49:36.253Z,9.22
2019-04-11T09:52:10.128Z,9.28
2019-04-11T09:54:42.429Z,9.23
2019-04-11T09:57:14.934Z,9.26
2019-04-11T09:59:47.692Z,9.36
2019-04-11T10:02:20.978Z,9.46
2019-04-11T10:04:54.360Z,9.56
2019-04-11T10:07:28.103Z,9.69
2019-04-11T10:10:00.640Z,9.83
2019-04-11T10:12:33.981Z,9.94
2019-04-11T10:15:07.188Z,10.01
2019-04-11T10:17:40.621Z,10.05
2019-04-11T10:20:12.935Z,10.09
2019-04-11T10:22:45.991Z,10.17
2019-04-11T10:25:19.102Z,10.23
2019-04-11T10:27:51.548Z,10.34
2019-04-11T10:30:24.063Z,10.35
2019-04-11T10:32:57.359Z,10.39
2019-04-11T10:35:30.370Z,10.65
2019-04-11T10:38:02.686Z,10.82
2019-04-11T10:40:35.051Z,10.84
2019-04-11T10:43:07.761Z,10.94
2019-04-11T10:45:40.011Z,11.06
2019-04-11T10:48:12.288Z,11.19
2019-04-11T10:50:44.559Z,11.19
2019-04-11T10:53:17.983Z,11.29
2019-04-11T10:55:51.651Z,11.40
2019-04-11T10:58:24.726Z,11.53
2019-04-11T11:00:57.691Z,11.58
2019-04-11T11:03:30.698Z,11.50
2019-04-11T11:06:03.219Z,11.30
2019-04-11T11:08:35.559Z,11.21
2019-04-11T11:11:08.159Z,11.36
2019-04-11T11:13:40.837Z,11.41
2019-04-11T11:16:13.913Z,11.60
2019-04-11T11:19:15.554Z,11.62
2019-04-11T11:21:25.006Z,11.80
2019-04-11T11:23:54.456Z,12.00
2019-04-11T11:26:27.893Z,11.86
2019-04-11T11:29:07.140Z,11.62
2019-04-11T11:31:36.263Z,11.60
2019-04-11T11:34:09.240Z,11.83
2019-04-11T11:36:41.851Z,12.30
2019-04-11T11:39:15.144Z,12.98
2019-04-11T11:41:48.872Z,13.10
2019-04-11T11:44:22.375Z,13.17
2019-04-11T11:46:54.775Z,13.60
2019-04-11T11:49:42.508Z,14.03
2019-04-11T11:52:01.913Z,14.77
2019-04-11T11:54:35.646Z,14.64
2019-04-11T11:57:08.678Z,14.74
2019-04-11T11:59:41.069Z,14.80
2019-04-11T12:02:17.377Z,14.93
2019-04-11T12:04:48.519Z,16.07
2019-04-11T12:07:23.104Z,19.19
2019-04-11T12:09:55.470Z,21.03
2019-04-11T12:12:27.646Z,21.75
2019-04-11T12:14:59.871Z,19.79
2019-04-11T12:17:34.776Z,20.14
2019-04-11T12:20:11.032Z,21.09
2019-04-11T12:22:40.241Z,20.63
2019-04-11T12:25:12.542Z,22.79
2019-04-11T12:27:45.726Z,24.20
2019-04-11T12:30:23.433Z,24.51
2019-04-11T12:32:53.380Z,24.77
2019-04-11T12:35:27.298Z,24.80
2019-04-11T12:38:00.826Z,25.43
2019-04-11T12:40:33.663Z,25.65
2019-04-11T12:43:06.484Z,25.30
2019-04-11T12:45:38.724Z,23.45
2019-04-11T12:48:12.167Z,20.79
2019-04-11T12:50:45.040Z,19.23
2019-04-11T12:53:18.078Z,21.35
2019-04-11T12:55:53.247Z,23.41
2019-04-11T12:58:26.134Z,24.89
2019-04-11T13:00:59.018Z,25.76
2019-04-11T13:03:31.956Z,26.52
2019-04-11T13:06:04.846Z,26.92
2019-04-11T13:08:37.690Z,26.25
2019-04-11T13:11:10.534Z,26.71
2019-04-11T13:13:43.551Z,27.14
2019-04-11T13:16:16.409Z,26.71
2019-04-11T13:18:49.318Z,25.17
2019-04-11T13:21:22.411Z,26.42
2019-04-11T13:23:55.726Z,27.79
2019-04-11T13:26:28.549Z,28.57
2019-04-11T13:29:01.572Z,28.62
2019-04-11T13:31:34.460Z,29.28
2019-04-11T13:34:07.339Z,29.51
2019-04-11T13:36:40.137Z,29.49
2019-04-11T13:39:13.076Z,26.37
2019-04-11T13:41:46.047Z,26.78
2019-04-11T13:44:19.329Z,27.30
2019-04-11T13:46:52.320Z,27.95
2019-04-11T13:49:25.556Z,27.47
2019-04-11T13:51:58.690Z,26.76
2019-04-11T13:54:31.621Z,24.58
2019-04-11T13:57:04.620Z,23.86
2019-04-11T13:59:38.220Z,22.10
2019-04-11T14:02:10.525Z,21.55
2019-04-11T14:04:42.813Z,18.92
2019-04-11T14:07:15.759Z,19.91
2019-04-11T14:09:48.106Z,20.95
2019-04-11T14:12:20.751Z,20.41
2019-04-11T14:14:53.285Z,19.61
2019-04-11T14:17:25.860Z,20.65
2019-04-11T14:19:58.447Z,19.76
2019-04-11T14:22:30.764Z,20.42
2019-04-11T14:25:03.107Z,21.46
2019-04-11T14:27:36.549Z,22.34
2019-04-11T14:30:09.378Z,22.77
2019-04-11T14:32:43.420Z,22.85
2019-04-11T14:35:16.206Z,22.33
2019-04-11T14:37:49.148Z,22.19
2019-04-11T14:40:22.289Z,22.47
2019-04-11T14:42:55.229Z,22.60
2019-04-11T14:45:28.481Z,23.58
2019-04-11T14:48:01.380Z,25.16
2019-04-11T14:50:40.631Z,23.71
2019-04-11T14:53:09.579Z,22.85
2019-04-11T14:55:43.062Z,23.47
2019-04-11T14:58:16.576Z,23.37
2019-04-11T15:00:53.761Z,23.52
2019-04-11T15:03:25.668Z,22.98
2019-04-11T15:05:59.827Z,23.17
2019-04-11T15:08:32.736Z,22.83
2019-04-11T15:11:05.619Z,22.42
2019-04-11T15:13:38.037Z,22.47
2019-04-11T15:16:11.066Z,22.81
2019-04-11T15:18:44.718Z,23.25
2019-04-11T15:21:17.307Z,22.83
2019-04-11T15:23:50.478Z,22.50
2019-04-11T15:26:23.297Z,20.99
2019-04-11T15:28:55.936Z,19.75
2019-04-11T15:31:38.740Z,19.90
2019-04-11T15:34:02.420Z,18.81
2019-04-11T15:36:34.728Z,17.33
2019-04-11T15:39:07.068Z,17.00
2019-04-11T15:41:39.811Z,16.60
2019-04-11T15:44:13.995Z,17.65
2019-04-11T15:46:47.859Z,17.47
2019-04-11T15:49:29.610Z,19.35
2019-04-11T15:51:56.021Z,20.45
2019-04-11T15:54:28.452Z,21.51
2019-04-11T15:57:01.333Z,22.83
2019-04-11T15:59:34.249Z,23.99
2019-04-11T16:02:07.085Z,23.51
2019-04-11T16:04:39.989Z,23.44
2019-04-11T16:07:13.330Z,22.66
2019-04-11T16:09:46.221Z,23.44
2019-04-11T16:12:19.168Z,24.35
2019-04-11T16:14:52.305Z,23.83
2019-04-11T16:17:25.578Z,23.00
2019-04-11T16:19:58.073Z,22.16
2019-04-11T16:22:30.429Z,20.78
2019-04-11T16:25:02.740Z,20.06
2019-04-11T16:27:36.628Z,21.54
2019-04-11T16:30:10.982Z,22.44
2019-04-11T16:32:44.132Z,22.78
2019-04-11T16:35:17.728Z,23.35
2019-04-11T16:37:50.724Z,24.21
2019-04-11T16:40:23.815Z,23.94
2019-04-11T16:42:59.051Z,23.05
2019-04-11T16:45:31.303Z,22.79
2019-04-11T16:48:03.493Z,22.56
2019-04-11T16:50:35.856Z,20.52
2019-04-11T16:53:10.685Z,20.40
2019-04-11T16:55:43.446Z,20.74
2019-04-11T16:58:19.457Z,20.25
2019-04-11T17:00:52.644Z,18.95
2019-04-11T17:03:25.083Z,17.74
2019-04-11T17:05:58.429Z,16.29
2019-04-11T17:08:30.653Z,15.03
2019-04-11T17:11:02.990Z,14.13
2019-04-11T17:13:35.210Z,13.45
2019-04-11T17:16:07.500Z,12.87
2019-04-11T17:18:39.765Z,12.48
2019-04-11T17:21:12.040Z,12.15
2019-04-11T17:23:46.851Z,11.90
2019-04-11T17:26:18.280Z,11.72
2019-04-11T17:28:53.702Z,11.54
2019-04-11T17:31:25.934Z,11.40
2019-04-11T17:34:01.487Z,11.25
2019-04-11T17:36:33.548Z,11.21
2019-04-11T17:39:07.037Z,11.13
2019-04-11T17:41:42.032Z,11.09
2019-04-11T17:44:15.089Z,11.01
2019-04-11T17:46:47.325Z,10.90
2019-04-11T17:49:19.892Z,10.77
2019-04-11T17:51:55.928Z,10.63
2019-04-11T17:54:26.756Z,10.53
2019-04-11T17:56:59.386Z,10.46
2019-04-11T17:59:31.725Z,10.38
2019-04-11T18:02:03.988Z,10.33
2019-04-11T18:04:36.520Z,10.25
2019-04-11T18:07:08.911Z,10.19
2019-04-11T18:09:41.232Z,10.11
2019-04-11T18:12:13.458Z,10.02
2019-04-11T18:14:46.216Z,9.99
2019-04-11T18:17:18.520Z,9.98
2019-04-11T18:19:50.863Z,9.95
2019-04-11T18:22:23.192Z,9.97
2019-04-11T18:24:55.507Z,10.00
2019-04-11T18:27:27.830Z,10.02
2019-04-11T18:30:00.441Z,10.03
2019-04-11T18:32:33.910Z,10.00
2019-04-11T18:35:06.123Z,9.92
2019-04-11T18:37:38.380Z,9.89
2019-04-11T18:40:10.664Z,9.85
2019-04-11T18:42:42.700Z,9.85
2019-04-11T18:45:14.970Z,9.83
2019-04-11T18:47:48.445Z,9.80
2019-04-11T18:50:22.702Z,9.82
2019-04-11T18:52:59.152Z,9.86
2019-04-11T18:55:29.114Z,9.83
2019-04-11T18:58:04.149Z,9.78
2019-04-11T19:00:38.374Z,9.71
2019-04-11T19:03:10.332Z,9.64
2019-04-11T19:05:43.639Z,9.64
2019-04-11T19:08:15.943Z,9.63
2019-04-11T19:10:48.170Z,9.60
2019-04-11T19:13:20.495Z,9.54
2019-04-11T19:15:53.745Z,9.51
2019-04-11T19:18:26.093Z,9.50
2019-04-11T19:20:58.516Z,9.40
2019-04-11T19:23:31.165Z,9.31
2019-04-11T19:26:03.409Z,9.26
2019-04-11T19:28:35.702Z,9.19
2019-04-11T19:31:07.997Z,9.09
2019-04-11T19:33:40.475Z,8.97
2019-04-11T19:36:12.883Z,8.87
2019-04-11T19:38:45.351Z,8.76
2019-04-11T19:41:18.343Z,8.64
2019-04-11T19:43:50.705Z,8.51
2019-04-11T19:46:22.911Z,8.36
2019-04-11T19:48:59.141Z,8.22
2019-04-11T19:51:29.608Z,8.12
2019-04-11T19:54:03.284Z,8.02
2019-04-11T19:56:35.931Z,7.85
2019-04-11T19:59:08.120Z,7.72
2019-04-11T20:01:40.392Z,7.63
2019-04-11T20:04:12.640Z,7.57
2019-04-11T20:06:44.955Z,7.48
2019-04-11T20:09:17.286Z,7.42
2019-04-11T20:11:49.577Z,7.37
2019-04-11T20:14:21.873Z,7.31
2019-04-11T20:16:54.106Z,7.23
2019-04-11T20:19:27.380Z,7.20
2019-04-11T20:22:00.325Z,7.17
2019-04-11T20:24:32.633Z,7.12
2019-04-11T20:27:04.902Z,7.09
2019-04-11T20:29:37.123Z,7.07
2019-04-11T20:32:09.496Z,7.01
2019-04-11T20:34:41.719Z,6.95
2019-04-11T20:37:14.050Z,6.90
2019-04-11T20:39:47.455Z,6.86
2019-04-11T20:42:24.039Z,6.84
2019-04-11T20:44:58.290Z,6.82
2019-04-11T20:47:30.179Z,6.79
2019-04-11T20:50:07.339Z,6.79
2019-04-11T20:52:36.587Z,6.80
2019-04-11T20:55:09.861Z,6.85
2019-04-11T20:57:42.250Z,6.86
2019-04-11T21:00:14.477Z,6.90
2019-04-11T21:02:46.986Z,6.93
2019-04-11T21:05:19.282Z,6.95
2019-04-11T21:07:51.533Z,6.96
2019-04-11T21:10:25.231Z,6.95
2019-04-11T21:12:57.517Z,6.96
2019-04-11T21:15:29.972Z,6.98
2019-04-11T21:18:02.340Z,6.99
2019-04-11T21:20:34.815Z,7.00
2019-04-11T21:23:06.890Z,7.01
2019-04-11T21:25:39.200Z,7.04
2019-04-11T21:28:11.815Z,7.07
2019-04-11T21:30:44.085Z,7.10
2019-04-11T21:33:16.415Z,7.13
2019-04-11T21:35:48.723Z,7.23
2019-04-11T21:38:20.955Z,7.30
2019-04-11T21:40:53.617Z,7.36
2019-04-11T21:43:25.968Z,7.35
2019-04-11T21:45:58.390Z,7.36
2019-04-11T21:48:30.618Z,7.37
2019-04-11T21:51:03.198Z,7.39
2019-04-11T21:53:37.011Z,7.38
2019-04-11T21:56:09.384Z,7.33
2019-04-11T21:58:41.687Z,7.32
2019-04-11T22:01:13.914Z,7.32
2019-04-11T22:03:48.399Z,7.37
2019-04-11T22:06:20.675Z,7.45
2019-04-11T22:08:53.138Z,7.49
2019-04-11T22:11:26.664Z,7.50
2019-04-11T22:13:58.944Z,7.48
2019-04-11T22:16:31.328Z,7.41
2019-04-11T22:19:03.915Z,7.37
2019-04-11T22:21:36.198Z,7.37
2019-04-11T22:24:08.427Z,7.39
2019-04-11T22:26:40.904Z,7.41
2019-04-11T22:29:13.532Z,7.36
2019-04-11T22:31:45.832Z,7.36
2019-04-11T22:34:18.256Z,7.32
2019-04-11T22:36:50.688Z,7.26
2019-04-11T22:39:23.068Z,7.26
2019-04-11T22:41:55.360Z,7.26
2019-04-11T22:44:27.735Z,7.24
2019-04-11T22:47:00.157Z,7.27
2019-04-11T22:49:32.382Z,7.32
2019-04-11T22:52:04.826Z,7.34
2019-04-11T22:54:38.277Z,7.34
2019-04-11T22:57:12.215Z,7.34
2019-04-11T22:59:45.322Z,7.29
2019-04-11T23:02:17.741Z,7.18
2019-04-11T23:04:50.097Z,7.19
2019-04-11T23:07:22.397Z,7.21
2019-04-11T23:09:56.951Z,7.21
2019-04-11T23:12:30.269Z,7.22
2019-04-11T23:15:02.554Z,7.25
2019-04-11T23:17:35.143Z,7.27
2019-04-11T23:20:07.433Z,7.24
2019-04-11T23:22:40.093Z,7.13
2019-04-11T23:25:13.816Z,7.05
2019-04-11T23:27:46.128Z,7.08
2019-04-11T23:30:19.085Z,7.13
2019-04-11T23:32:51.796Z,7.07
2019-04-11T23:35:24.237Z,7.00
2019-04-11T23:37:56.454Z,7.00
2019-04-11T23:40:28.824Z,7.06
2019-04-11T23:43:01.090Z,6.95
2019-04-11T23:45:33.308Z,6.94
2019-04-11T23:48:05.570Z,6.88
2019-04-11T23:50:37.849Z,6.86
2019-04-11T23:53:10.053Z,6.85
2019-04-11T23:55:42.332Z,6.90
2019-04-11T23:58:14.531Z,6.91
